createdAt,value
2022-09-01T00:00:05.576Z,100697.00
2022-09-01T00:00:16.319Z,100696.00
2022-09-01T00:00:27.055Z,100697.00
2022-09-01T00:00:37.815Z,100696.00
2022-09-01T00:00:49.533Z,100697.00
2022-09-01T00:01:01.335Z,100696.00
2022-09-01T00:01:13.215Z,100698.00
2022-09-01T00:01:23.985Z,100692.00
2022-09-01T00:01:35.717Z,100695.00
2022-09-01T00:01:47.446Z,100696.00
2022-09-01T00:01:58.196Z,100694.00
2022-09-01T00:02:10.730Z,100695.00
2022-09-01T00:02:24.015Z,100696.00
2022-09-01T00:02:35.752Z,100696.00
2022-09-01T00:02:47.540Z,100696.00
2022-09-01T00:02:58.358Z,100695.00
2022-09-01T00:03:10.055Z,100696.00
2022-09-01T00:03:21.875Z,100693.00
2022-09-01T00:03:32.636Z,100692.00
2022-09-01T00:03:45.064Z,100693.00
2022-09-01T00:03:55.871Z,100697.00
2022-09-01T00:04:08.115Z,100695.00
2022-09-01T00:04:20.113Z,100695.00
2022-09-01T00:04:30.962Z,100693.00
2022-09-01T00:04:41.753Z,100694.00
2022-09-01T00:04:54.547Z,100692.00
2022-09-01T00:05:06.267Z,100693.00
2022-09-01T00:05:17.036Z,100696.00
2022-09-01T00:05:27.797Z,100692.00
2022-09-01T00:05:38.637Z,100693.00
2022-09-01T00:05:49.396Z,100691.00
2022-09-01T00:06:00.136Z,100691.00
2022-09-01T00:06:10.917Z,100691.00
2022-09-01T00:06:22.653Z,100694.00
2022-09-01T00:06:35.076Z,100693.00
2022-09-01T00:06:45.837Z,100693.00
2022-09-01T00:06:56.567Z,100691.00
2022-09-01T00:07:09.127Z,100695.00
2022-09-01T00:07:21.637Z,100692.00
2022-09-01T00:07:32.408Z,100694.00
2022-09-01T00:07:44.109Z,100696.00
2022-09-01T00:07:54.883Z,100693.00
2022-09-01T00:08:05.641Z,100697.00
2022-09-01T00:08:18.671Z,100694.00
2022-09-01T00:08:30.498Z,100693.00
2022-09-01T00:08:43.018Z,100693.00
2022-09-01T00:08:55.328Z,100693.00
2022-09-01T00:09:07.108Z,100694.00
2022-09-01T00:09:18.831Z,100692.00
2022-09-01T00:09:29.577Z,100694.00
2022-09-01T00:09:41.298Z,100695.00
2022-09-01T00:09:52.028Z,100697.00
2022-09-01T00:10:03.738Z,100693.00
2022-09-01T00:10:14.498Z,100695.00
2022-09-01T00:10:25.238Z,100695.00
2022-09-01T00:10:35.978Z,100700.00
2022-09-01T00:10:46.800Z,100697.00
2022-09-01T00:10:59.270Z,100700.00
2022-09-01T00:11:11.021Z,100696.00
2022-09-01T00:11:21.809Z,100698.00
2022-09-01T00:11:32.548Z,100699.00
2022-09-01T00:11:50.338Z,100701.00
2022-09-01T00:11:59.917Z,100699.00
2022-09-01T00:12:10.689Z,100698.00
2022-09-01T00:12:21.440Z,100699.00
2022-09-01T00:12:32.187Z,100700.00
2022-09-01T00:12:43.900Z,100699.00
2022-09-01T00:12:54.639Z,100701.00
2022-09-01T00:13:05.399Z,100698.00
2022-09-01T00:13:16.209Z,100699.00
2022-09-01T00:13:26.959Z,100697.00
2022-09-01T00:13:37.702Z,100694.00
2022-09-01T00:13:48.459Z,100698.00
2022-09-01T00:13:59.248Z,100695.00
2022-09-01T00:14:24.790Z,100695.00
2022-09-01T00:14:29.869Z,100694.00
2022-09-01T00:14:41.731Z,100696.00
2022-09-01T00:14:53.451Z,100699.00
2022-09-01T00:15:04.305Z,100698.00
2022-09-01T00:15:15.058Z,100697.00
2022-09-01T00:15:25.809Z,100700.00
2022-09-01T00:15:36.590Z,100701.00
2022-09-01T00:15:48.323Z,100695.00
2022-09-01T00:15:59.079Z,100701.00
2022-09-01T00:16:09.925Z,100696.00
2022-09-01T00:16:21.750Z,100697.00
2022-09-01T00:16:32.491Z,100700.00
2022-09-01T00:16:43.253Z,100696.00
2022-09-01T00:16:53.993Z,100697.00
2022-09-01T00:17:04.721Z,100701.00
2022-09-01T00:17:15.481Z,100696.00
2022-09-01T00:17:26.223Z,100698.00
2022-09-01T00:17:37.004Z,100699.00
2022-09-01T00:17:47.769Z,100697.00
2022-09-01T00:17:58.502Z,100700.00
2022-09-01T00:18:09.282Z,100696.00
2022-09-01T00:18:20.283Z,100699.00
2022-09-01T00:18:31.191Z,100700.00
2022-09-01T00:18:41.920Z,100699.00
2022-09-01T00:18:52.671Z,100699.00
2022-09-01T00:19:03.422Z,100700.00
2022-09-01T00:19:14.192Z,100695.00
2022-09-01T00:19:24.958Z,100693.00
2022-09-01T00:19:35.705Z,100698.00
2022-09-01T00:19:46.452Z,100700.00
2022-09-01T00:19:57.192Z,100702.00
2022-09-01T00:20:07.926Z,100702.00
2022-09-01T00:20:20.760Z,100700.00
2022-09-01T00:20:31.720Z,100702.00
2022-09-01T00:20:42.501Z,100702.00
2022-09-01T00:20:53.241Z,100698.00
2022-09-01T00:21:03.982Z,100698.00
2022-09-01T00:21:14.740Z,100701.00
2022-09-01T00:21:25.510Z,100700.00
2022-09-01T00:21:37.954Z,100699.00
2022-09-01T00:21:48.700Z,100698.00
2022-09-01T00:21:59.423Z,100702.00
2022-09-01T00:22:11.113Z,100707.00
2022-09-01T00:22:21.866Z,100701.00
2022-09-01T00:22:32.611Z,100698.00
2022-09-01T00:22:43.341Z,100698.00
2022-09-01T00:22:54.092Z,100702.00
2022-09-01T00:23:04.860Z,100705.00
2022-09-01T00:23:15.606Z,100705.00
2022-09-01T00:23:28.042Z,100705.00
2022-09-01T00:23:38.802Z,100698.00
2022-09-01T00:23:49.553Z,100700.00
2022-09-01T00:24:00.283Z,100702.00
2022-09-01T00:24:11.023Z,100701.00
2022-09-01T00:24:21.793Z,100702.00
2022-09-01T00:24:32.534Z,100700.00
2022-09-01T00:24:43.280Z,100702.00
2022-09-01T00:24:54.013Z,100704.00
2022-09-01T00:25:05.895Z,100701.00
2022-09-01T00:25:16.625Z,100700.00
2022-09-01T00:25:27.494Z,100701.00
2022-09-01T00:25:38.282Z,100700.00
2022-09-01T00:25:49.033Z,100702.00
2022-09-01T00:25:59.798Z,100700.00
2022-09-01T00:26:10.675Z,100699.00
2022-09-01T00:26:22.413Z,100696.00
2022-09-01T00:26:33.144Z,100699.00
2022-09-01T00:26:43.915Z,100698.00
2022-09-01T00:26:55.652Z,100698.00
2022-09-01T00:27:07.451Z,100699.00
2022-09-01T00:27:19.634Z,100699.00
2022-09-01T00:27:32.541Z,100699.00
2022-09-01T00:27:43.319Z,100700.00
2022-09-01T00:27:54.054Z,100697.00
2022-09-01T00:28:05.795Z,100699.00
2022-09-01T00:28:18.376Z,100699.00
2022-09-01T00:28:29.295Z,100701.00
2022-09-01T00:28:42.104Z,100703.00
2022-09-01T00:28:52.835Z,100701.00
2022-09-01T00:29:03.589Z,100701.00
2022-09-01T00:29:15.277Z,100701.00
2022-09-01T00:29:26.037Z,100703.00
2022-09-01T00:29:36.845Z,100701.00
2022-09-01T00:29:47.575Z,100699.00
2022-09-01T00:29:59.306Z,100702.00
2022-09-01T00:30:11.509Z,100702.00
2022-09-01T00:30:22.247Z,100701.00
2022-09-01T00:30:32.985Z,100702.00
2022-09-01T00:30:43.756Z,100707.00
2022-09-01T00:30:54.543Z,100705.00
2022-09-01T00:31:05.962Z,100703.00
2022-09-01T00:31:19.211Z,100701.00
2022-09-01T00:31:30.942Z,100703.00
2022-09-01T00:31:43.376Z,100700.00
2022-09-01T00:31:54.117Z,100703.00
2022-09-01T00:32:06.829Z,100704.00
2022-09-01T00:32:19.275Z,100700.00
2022-09-01T00:32:31.016Z,100703.00
2022-09-01T00:32:41.756Z,100700.00
2022-09-01T00:32:52.490Z,100702.00
2022-09-01T00:33:04.186Z,100703.00
2022-09-01T00:33:14.916Z,100702.00
2022-09-01T00:33:25.675Z,100702.00
2022-09-01T00:33:38.117Z,100701.00
2022-09-01T00:33:49.827Z,100701.00
2022-09-01T00:34:00.577Z,100700.00
2022-09-01T00:34:12.267Z,100701.00
2022-09-01T00:34:23.000Z,100700.00
2022-09-01T00:34:33.738Z,100700.00
2022-09-01T00:34:44.476Z,100697.00
2022-09-01T00:34:55.222Z,100706.00
2022-09-01T00:35:05.956Z,100706.00
2022-09-01T00:35:16.685Z,100700.00
2022-09-01T00:35:27.448Z,100700.00
2022-09-01T00:35:38.197Z,100697.00
2022-09-01T00:35:48.938Z,100702.00
2022-09-01T00:35:59.677Z,100705.00
2022-09-01T00:36:10.413Z,100704.00
2022-09-01T00:36:22.817Z,100704.00
2022-09-01T00:36:33.559Z,100703.00
2022-09-01T00:36:44.306Z,100702.00
2022-09-01T00:36:55.046Z,100701.00
2022-09-01T00:37:05.776Z,100702.00
2022-09-01T00:37:16.547Z,100703.00
2022-09-01T00:37:27.349Z,100703.00
2022-09-01T00:37:38.098Z,100699.00
2022-09-01T00:37:48.843Z,100702.00
2022-09-01T00:37:59.577Z,100706.00
2022-09-01T00:38:11.988Z,100707.00
2022-09-01T00:38:22.707Z,100704.00
2022-09-01T00:38:33.439Z,100703.00
2022-09-01T00:38:44.195Z,100698.00
2022-09-01T00:38:55.898Z,100701.00
2022-09-01T00:39:06.638Z,100704.00
2022-09-01T00:39:18.329Z,100701.00
2022-09-01T00:39:29.070Z,100702.00
2022-09-01T00:39:39.810Z,100705.00
2022-09-01T00:39:51.513Z,100697.00
2022-09-01T00:40:02.288Z,100701.00
2022-09-01T00:40:13.113Z,100700.00
2022-09-01T00:40:23.937Z,100698.00
2022-09-01T00:40:34.668Z,100698.00
2022-09-01T00:40:45.485Z,100699.00
2022-09-01T00:40:57.220Z,100699.00
2022-09-01T00:41:07.942Z,100696.00
2022-09-01T00:41:18.667Z,100697.00
2022-09-01T00:41:29.397Z,100698.00
2022-09-01T00:41:40.138Z,100697.00
2022-09-01T00:41:50.890Z,100698.00
2022-09-01T00:42:01.639Z,100700.00
2022-09-01T00:42:12.369Z,100702.00
2022-09-01T00:42:23.130Z,100696.00
2022-09-01T00:42:33.870Z,100698.00
2022-09-01T00:42:46.315Z,100699.00
2022-09-01T00:42:57.051Z,100696.00
2022-09-01T00:43:07.820Z,100697.00
2022-09-01T00:43:18.561Z,100699.00
2022-09-01T00:43:30.708Z,100699.00
2022-09-01T00:43:41.458Z,100699.00
2022-09-01T00:43:52.203Z,100697.00
2022-09-01T00:44:04.650Z,100697.00
2022-09-01T00:44:15.388Z,100695.00
2022-09-01T00:44:26.130Z,100701.00
2022-09-01T00:44:37.050Z,100697.00
2022-09-01T00:44:50.020Z,100697.00
2022-09-01T00:45:00.790Z,100696.00
2022-09-01T00:45:12.526Z,100699.00
2022-09-01T00:45:24.267Z,100696.00
2022-09-01T00:45:34.998Z,100697.00
2022-09-01T00:45:45.783Z,100701.00
2022-09-01T00:45:56.555Z,100698.00
2022-09-01T00:46:07.666Z,100698.00
2022-09-01T00:46:20.514Z,100693.00
2022-09-01T00:46:33.406Z,100695.00
2022-09-01T00:46:49.631Z,100697.00
2022-09-01T00:47:00.716Z,100698.00
2022-09-01T00:47:11.441Z,100693.00
2022-09-01T00:47:23.431Z,100696.00
2022-09-01T00:47:34.172Z,100695.00
2022-09-01T00:47:44.941Z,100697.00
2022-09-01T00:47:55.683Z,100697.00
2022-09-01T00:48:06.421Z,100695.00
2022-09-01T00:48:17.342Z,100694.00
2022-09-01T00:48:28.090Z,100697.00
2022-09-01T00:48:38.904Z,100698.00
2022-09-01T00:48:49.844Z,100696.00
2022-09-01T00:49:00.572Z,100695.00
2022-09-01T00:49:11.323Z,100693.00
2022-09-01T00:49:22.132Z,100697.00
2022-09-01T00:49:35.244Z,100698.00
2022-09-01T00:49:48.426Z,100698.00
2022-09-01T00:49:59.162Z,100699.00
2022-09-01T00:50:12.373Z,100697.00
2022-09-01T00:50:24.072Z,100695.00
2022-09-01T00:50:34.813Z,100698.00
2022-09-01T00:50:47.287Z,100694.00
2022-09-01T00:51:01.712Z,100698.00
2022-09-01T00:51:13.442Z,100695.00
2022-09-01T00:51:25.144Z,100697.00
2022-09-01T00:51:37.589Z,100692.00
2022-09-01T00:51:48.321Z,100698.00
2022-09-01T00:51:59.052Z,100695.00
2022-09-01T00:52:09.793Z,100696.00
2022-09-01T00:52:21.512Z,100692.00
2022-09-01T00:52:33.203Z,100696.00
2022-09-01T00:52:43.931Z,100693.00
2022-09-01T00:52:54.682Z,100691.00
2022-09-01T00:53:05.433Z,100694.00
2022-09-01T00:53:16.171Z,100698.00
2022-09-01T00:53:26.954Z,100695.00
2022-09-01T00:53:38.658Z,100692.00
2022-09-01T00:53:50.373Z,100697.00
2022-09-01T00:54:01.113Z,100697.00
2022-09-01T00:54:11.923Z,100696.00
2022-09-01T00:54:22.682Z,100695.00
2022-09-01T00:54:34.414Z,100696.00
2022-09-01T00:54:46.175Z,100697.00
2022-09-01T00:54:56.914Z,100694.00
2022-09-01T00:55:07.647Z,100699.00
2022-09-01T00:55:18.383Z,100700.00
2022-09-01T00:55:29.122Z,100694.00
2022-09-01T00:55:41.824Z,100699.00
2022-09-01T00:55:52.566Z,100697.00
2022-09-01T00:56:03.324Z,100698.00
2022-09-01T00:56:14.082Z,100699.00
2022-09-01T00:56:24.847Z,100699.00
2022-09-01T00:56:35.583Z,100695.00
2022-09-01T00:56:46.631Z,100698.00
2022-09-01T00:57:00.453Z,100698.00
2022-09-01T00:57:11.184Z,100694.00
2022-09-01T00:57:21.942Z,100694.00
2022-09-01T00:57:32.725Z,100694.00
2022-09-01T00:57:45.256Z,100694.00
2022-09-01T00:57:56.005Z,100697.00
2022-09-01T00:58:06.744Z,100697.00
2022-09-01T00:58:22.425Z,100695.00
2022-09-01T00:58:34.125Z,100695.00
2022-09-01T00:58:44.855Z,100698.00
2022-09-01T00:58:55.595Z,100693.00
2022-09-01T00:59:06.335Z,100694.00
2022-09-01T00:59:18.064Z,100691.00
2022-09-01T00:59:28.796Z,100690.00
2022-09-01T00:59:40.495Z,100697.00
2022-09-01T00:59:51.304Z,100694.00
2022-09-01T01:00:02.059Z,100694.00
2022-09-01T01:00:12.806Z,100695.00
2022-09-01T01:00:24.767Z,100693.00
2022-09-01T01:00:35.535Z,100692.00
2022-09-01T01:00:48.036Z,100690.00
2022-09-01T01:00:58.836Z,100695.00
2022-09-01T01:01:09.589Z,100694.00
2022-09-01T01:01:20.386Z,100692.00
2022-09-01T01:01:31.162Z,100694.00
2022-09-01T01:01:41.928Z,100691.00
2022-09-01T01:01:52.774Z,100690.00
2022-09-01T01:02:03.515Z,100695.00
2022-09-01T01:02:14.288Z,100697.00
2022-09-01T01:02:25.050Z,100693.00
2022-09-01T01:02:36.723Z,100694.00
2022-09-01T01:02:47.567Z,100697.00
2022-09-01T01:02:58.415Z,100696.00
2022-09-01T01:03:09.169Z,100700.00
2022-09-01T01:03:19.897Z,100697.00
2022-09-01T01:03:30.644Z,100695.00
2022-09-01T01:03:41.377Z,100696.00
2022-09-01T01:03:52.140Z,100697.00
2022-09-01T01:04:02.847Z,100693.00
2022-09-01T01:04:13.586Z,100697.00
2022-09-01T01:04:24.317Z,100694.00
2022-09-01T01:04:35.058Z,100696.00
2022-09-01T01:04:45.777Z,100696.00
2022-09-01T01:04:56.516Z,100695.00
2022-09-01T01:05:07.247Z,100695.00
2022-09-01T01:05:23.830Z,100693.00
2022-09-01T01:05:34.567Z,100696.00
2022-09-01T01:05:45.308Z,100696.00
2022-09-01T01:05:56.048Z,100697.00
2022-09-01T01:06:06.790Z,100697.00
2022-09-01T01:06:17.537Z,100695.00
2022-09-01T01:06:29.763Z,100700.00
2022-09-01T01:06:43.017Z,100694.00
2022-09-01T01:06:53.759Z,100696.00
2022-09-01T01:07:04.488Z,100695.00
2022-09-01T01:07:16.688Z,100693.00
2022-09-01T01:07:28.401Z,100695.00
2022-09-01T01:07:39.141Z,100695.00
2022-09-01T01:07:50.840Z,100694.00
2022-09-01T01:08:01.597Z,100695.00
2022-09-01T01:08:12.462Z,100693.00
2022-09-01T01:08:23.249Z,100693.00
2022-09-01T01:08:34.169Z,100695.00
2022-09-01T01:08:44.969Z,100695.00
2022-09-01T01:08:55.707Z,100696.00
2022-09-01T01:09:08.930Z,100698.00
2022-09-01T01:09:19.708Z,100697.00
2022-09-01T01:09:30.436Z,100697.00
2022-09-01T01:09:42.119Z,100699.00
2022-09-01T01:09:52.859Z,100694.00
2022-09-01T01:10:04.564Z,100699.00
2022-09-01T01:10:17.280Z,100698.00
2022-09-01T01:10:28.008Z,100696.00
2022-09-01T01:10:38.742Z,100695.00
2022-09-01T01:10:50.440Z,100694.00
2022-09-01T01:11:01.189Z,100697.00
2022-09-01T01:11:11.929Z,100700.00
2022-09-01T01:11:22.671Z,100699.00
2022-09-01T01:11:33.399Z,100699.00
2022-09-01T01:11:44.159Z,100700.00
2022-09-01T01:11:54.908Z,100699.00
2022-09-01T01:12:06.599Z,100698.00
2022-09-01T01:12:19.051Z,100698.00
2022-09-01T01:12:31.511Z,100694.00
2022-09-01T01:12:42.244Z,100698.00
2022-09-01T01:12:53.038Z,100695.00
2022-09-01T01:13:03.769Z,100697.00
2022-09-01T01:13:14.511Z,100694.00
2022-09-01T01:13:25.271Z,100696.00
2022-09-01T01:13:36.021Z,100694.00
2022-09-01T01:13:46.760Z,100693.00
2022-09-01T01:13:57.490Z,100696.00
2022-09-01T01:14:09.171Z,100696.00
2022-09-01T01:14:19.898Z,100696.00
2022-09-01T01:14:30.640Z,100699.00
2022-09-01T01:14:41.380Z,100699.00
2022-09-01T01:14:52.135Z,100696.00
2022-09-01T01:15:02.860Z,100697.00
2022-09-01T01:15:14.560Z,100698.00
2022-09-01T01:15:26.281Z,100694.00
2022-09-01T01:15:37.022Z,100694.00
2022-09-01T01:15:47.771Z,100696.00
2022-09-01T01:15:58.501Z,100696.00
2022-09-01T01:16:09.239Z,100693.00
2022-09-01T01:16:20.004Z,100694.00
2022-09-01T01:16:30.767Z,100696.00
2022-09-01T01:16:42.509Z,100696.00
2022-09-01T01:16:53.279Z,100695.00
2022-09-01T01:17:04.117Z,100695.00
2022-09-01T01:17:15.906Z,100697.00
2022-09-01T01:17:26.741Z,100692.00
2022-09-01T01:17:37.471Z,100693.00
2022-09-01T01:17:48.210Z,100694.00
2022-09-01T01:17:58.961Z,100695.00
2022-09-01T01:18:09.701Z,100696.00
2022-09-01T01:18:23.354Z,100691.00
2022-09-01T01:18:34.406Z,100693.00
2022-09-01T01:18:45.271Z,100692.00
2022-09-01T01:18:56.031Z,100694.00
2022-09-01T01:19:06.753Z,100693.00
2022-09-01T01:19:17.500Z,100690.00
2022-09-01T01:19:28.232Z,100692.00
2022-09-01T01:19:39.214Z,100689.00
2022-09-01T01:19:49.964Z,100694.00
2022-09-01T01:20:00.694Z,100690.00
2022-09-01T01:20:11.436Z,100689.00
2022-09-01T01:20:22.174Z,100691.00
2022-09-01T01:20:32.902Z,100690.00
2022-09-01T01:20:43.633Z,100689.00
2022-09-01T01:20:54.373Z,100692.00
2022-09-01T01:21:05.106Z,100690.00
2022-09-01T01:21:16.803Z,100689.00
2022-09-01T01:21:27.561Z,100689.00
2022-09-01T01:21:38.303Z,100693.00
2022-09-01T01:21:49.031Z,100691.00
2022-09-01T01:21:59.763Z,100690.00
2022-09-01T01:22:10.483Z,100688.00
2022-09-01T01:22:21.248Z,100686.00
2022-09-01T01:22:31.983Z,100690.00
2022-09-01T01:22:42.724Z,100689.00
2022-09-01T01:22:55.173Z,100689.00
2022-09-01T01:23:05.974Z,100690.00
2022-09-01T01:23:16.664Z,100690.00
2022-09-01T01:23:29.093Z,100690.00
2022-09-01T01:23:39.821Z,100690.00
2022-09-01T01:23:50.563Z,100687.00
2022-09-01T01:24:01.304Z,100690.00
2022-09-01T01:24:13.764Z,100690.00
2022-09-01T01:24:24.504Z,100689.00
2022-09-01T01:24:35.268Z,100687.00
2022-09-01T01:24:46.004Z,100688.00
2022-09-01T01:24:56.753Z,100687.00
2022-09-01T01:25:08.473Z,100688.00
2022-09-01T01:25:22.164Z,100689.00
2022-09-01T01:25:32.907Z,100688.00
2022-09-01T01:25:43.637Z,100687.00
2022-09-01T01:25:54.374Z,100687.00
2022-09-01T01:26:05.105Z,100690.00
2022-09-01T01:26:15.842Z,100691.00
2022-09-01T01:26:26.586Z,100689.00
2022-09-01T01:26:37.313Z,100693.00
2022-09-01T01:26:50.216Z,100689.00
2022-09-01T01:27:02.415Z,100689.00
2022-09-01T01:27:13.154Z,100691.00
2022-09-01T01:27:23.893Z,100689.00
2022-09-01T01:27:34.633Z,100689.00
2022-09-01T01:27:50.246Z,100695.00
2022-09-01T01:28:00.976Z,100690.00
2022-09-01T01:28:11.742Z,100693.00
2022-09-01T01:28:22.661Z,100692.00
2022-09-01T01:28:33.436Z,100691.00
2022-09-01T01:28:44.192Z,100691.00
2022-09-01T01:28:54.915Z,100690.00
2022-09-01T01:29:07.365Z,100691.00
2022-09-01T01:29:19.145Z,100688.00
2022-09-01T01:29:29.956Z,100690.00
2022-09-01T01:29:40.696Z,100689.00
2022-09-01T01:29:51.439Z,100686.00
2022-09-01T01:30:02.166Z,100690.00
2022-09-01T01:30:13.878Z,100690.00
2022-09-01T01:30:24.626Z,100688.00
2022-09-01T01:30:35.412Z,100688.00
2022-09-01T01:30:46.197Z,100689.00
2022-09-01T01:30:56.950Z,100690.00
2022-09-01T01:31:08.713Z,100687.00
2022-09-01T01:31:20.352Z,100691.00
2022-09-01T01:31:31.217Z,100688.00
2022-09-01T01:31:41.995Z,100689.00
2022-09-01T01:31:52.757Z,100688.00
2022-09-01T01:32:05.467Z,100688.00
2022-09-01T01:32:17.897Z,100692.00
2022-09-01T01:32:28.626Z,100692.00
2022-09-01T01:32:40.349Z,100693.00
2022-09-01T01:32:51.088Z,100690.00
2022-09-01T01:33:01.818Z,100691.00
2022-09-01T01:33:15.137Z,100690.00
2022-09-01T01:33:26.815Z,100692.00
2022-09-01T01:33:37.567Z,100691.00
2022-09-01T01:33:51.480Z,100693.00
2022-09-01T01:34:02.218Z,100688.00
2022-09-01T01:34:12.957Z,100693.00
2022-09-01T01:34:23.717Z,100692.00
2022-09-01T01:34:35.417Z,100693.00
2022-09-01T01:34:48.385Z,100696.00
2022-09-01T01:34:59.461Z,100695.00
2022-09-01T01:35:11.878Z,100695.00
2022-09-01T01:35:22.619Z,100699.00
2022-09-01T01:35:33.356Z,100695.00
2022-09-01T01:35:44.098Z,100691.00
2022-09-01T01:35:54.828Z,100696.00
2022-09-01T01:36:05.577Z,100692.00
2022-09-01T01:36:16.317Z,100692.00
2022-09-01T01:36:27.061Z,100690.00
2022-09-01T01:36:39.252Z,100693.00
2022-09-01T01:36:49.988Z,100697.00
2022-09-01T01:37:01.687Z,100691.00
2022-09-01T01:37:12.438Z,100695.00
2022-09-01T01:37:24.868Z,100694.00
2022-09-01T01:37:35.628Z,100694.00
2022-09-01T01:37:46.371Z,100698.00
2022-09-01T01:37:58.060Z,100696.00
2022-09-01T01:38:08.788Z,100698.00
2022-09-01T01:38:21.988Z,100700.00
2022-09-01T01:38:33.779Z,100697.00
2022-09-01T01:38:44.518Z,100696.00
2022-09-01T01:38:55.258Z,100695.00
2022-09-01T01:39:05.999Z,100697.00
2022-09-01T01:39:16.739Z,100691.00
2022-09-01T01:39:27.477Z,100695.00
2022-09-01T01:39:38.209Z,100693.00
2022-09-01T01:39:49.829Z,100697.00
2022-09-01T01:40:00.738Z,100688.00
2022-09-01T01:40:11.630Z,100694.00
2022-09-01T01:40:22.419Z,100694.00
2022-09-01T01:40:34.209Z,100694.00
2022-09-01T01:40:45.047Z,100695.00
2022-09-01T01:40:55.779Z,100694.00
2022-09-01T01:41:06.537Z,100694.00
2022-09-01T01:41:17.279Z,100689.00
2022-09-01T01:41:28.033Z,100695.00
2022-09-01T01:41:38.760Z,100690.00
2022-09-01T01:41:49.498Z,100694.00
2022-09-01T01:42:01.191Z,100694.00
2022-09-01T01:42:11.930Z,100692.00
2022-09-01T01:42:22.679Z,100692.00
2022-09-01T01:42:33.470Z,100692.00
2022-09-01T01:42:44.200Z,100691.00
2022-09-01T01:42:54.951Z,100691.00
2022-09-01T01:43:05.696Z,100691.00
2022-09-01T01:43:16.430Z,100693.00
2022-09-01T01:43:27.170Z,100692.00
2022-09-01T01:43:37.910Z,100689.00
2022-09-01T01:43:49.590Z,100690.00
2022-09-01T01:44:00.319Z,100692.00
2022-09-01T01:44:12.780Z,100688.00
2022-09-01T01:44:23.508Z,100690.00
2022-09-01T01:44:34.252Z,100688.00
2022-09-01T01:44:44.999Z,100689.00
2022-09-01T01:44:55.730Z,100688.00
2022-09-01T01:45:06.473Z,100688.00
2022-09-01T01:45:17.254Z,100687.00
2022-09-01T01:45:27.999Z,100690.00
2022-09-01T01:45:38.763Z,100692.00
2022-09-01T01:45:49.517Z,100691.00
2022-09-01T01:46:00.284Z,100692.00
2022-09-01T01:46:11.072Z,100694.00
2022-09-01T01:46:22.893Z,100693.00
2022-09-01T01:46:34.228Z,100690.00
2022-09-01T01:46:44.981Z,100688.00
2022-09-01T01:46:55.720Z,100689.00
2022-09-01T01:47:06.451Z,100690.00
2022-09-01T01:47:18.131Z,100685.00
2022-09-01T01:47:28.891Z,100689.00
2022-09-01T01:47:40.571Z,100690.00
2022-09-01T01:47:52.271Z,100687.00
2022-09-01T01:48:04.711Z,100687.00
2022-09-01T01:48:15.453Z,100685.00
2022-09-01T01:48:26.215Z,100686.00
2022-09-01T01:48:39.403Z,100686.00
2022-09-01T01:48:50.152Z,100684.00
2022-09-01T01:49:00.911Z,100683.00
2022-09-01T01:49:11.663Z,100686.00
2022-09-01T01:49:24.379Z,100692.00
2022-09-01T01:49:35.102Z,100687.00
2022-09-01T01:49:45.842Z,100688.00
2022-09-01T01:49:56.600Z,100687.00
2022-09-01T01:50:07.342Z,100691.00
2022-09-01T01:50:19.072Z,100693.00
2022-09-01T01:50:30.842Z,100692.00
2022-09-01T01:50:42.563Z,100691.00
2022-09-01T01:50:53.302Z,100693.00
2022-09-01T01:51:04.090Z,100690.00
2022-09-01T01:51:14.823Z,100692.00
2022-09-01T01:51:25.593Z,100687.00
2022-09-01T01:51:36.351Z,100688.00
2022-09-01T01:51:47.090Z,100691.00
2022-09-01T01:51:57.830Z,100684.00
2022-09-01T01:52:08.563Z,100684.00
2022-09-01T01:52:20.264Z,100689.00
2022-09-01T01:52:36.843Z,100688.00
2022-09-01T01:52:48.383Z,100688.00
2022-09-01T01:53:03.884Z,100684.00
2022-09-01T01:53:19.492Z,100690.00
2022-09-01T01:53:30.233Z,100688.00
2022-09-01T01:53:40.967Z,100689.00
2022-09-01T01:53:51.701Z,100688.00
2022-09-01T01:54:02.454Z,100688.00
2022-09-01T01:54:13.182Z,100691.00
2022-09-01T01:54:23.914Z,100690.00
2022-09-01T01:54:34.663Z,100689.00
2022-09-01T01:54:46.343Z,100691.00
2022-09-01T01:54:57.092Z,100688.00
2022-09-01T01:55:07.823Z,100688.00
2022-09-01T01:55:18.562Z,100690.00
2022-09-01T01:55:29.296Z,100690.00
2022-09-01T01:55:40.052Z,100690.00
2022-09-01T01:55:51.755Z,100688.00
2022-09-01T01:56:02.528Z,100689.00
2022-09-01T01:56:13.263Z,100690.00
2022-09-01T01:56:24.965Z,100688.00
2022-09-01T01:56:35.714Z,100690.00
2022-09-01T01:56:47.423Z,100692.00
2022-09-01T01:56:58.155Z,100692.00
2022-09-01T01:57:08.883Z,100692.00
2022-09-01T01:57:21.074Z,100692.00
2022-09-01T01:57:31.814Z,100687.00
2022-09-01T01:57:42.554Z,100689.00
2022-09-01T01:57:53.305Z,100690.00
2022-09-01T01:58:04.878Z,100687.00
2022-09-01T01:58:15.714Z,100688.00
2022-09-01T01:58:28.918Z,100692.00
2022-09-01T01:58:39.657Z,100687.00
2022-09-01T01:58:50.385Z,100688.00
2022-09-01T01:59:01.127Z,100692.00
2022-09-01T01:59:11.867Z,100689.00
2022-09-01T01:59:22.603Z,100691.00
2022-09-01T01:59:33.336Z,100687.00
2022-09-01T01:59:44.085Z,100690.00
2022-09-01T01:59:55.776Z,100690.00
2022-09-01T02:00:06.548Z,100690.00
2022-09-01T02:00:17.266Z,100688.00
2022-09-01T02:00:31.558Z,100689.00
2022-09-01T02:00:42.296Z,100690.00
2022-09-01T02:00:53.060Z,100693.00
2022-09-01T02:01:04.894Z,100691.00
2022-09-01T02:01:15.717Z,100689.00
2022-09-01T02:01:26.470Z,100692.00
2022-09-01T02:01:38.174Z,100695.00
2022-09-01T02:01:49.367Z,100690.00
2022-09-01T02:02:00.298Z,100689.00
2022-09-01T02:02:11.082Z,100694.00
2022-09-01T02:02:21.907Z,100692.00
2022-09-01T02:02:32.721Z,100693.00
2022-09-01T02:02:44.469Z,100692.00
2022-09-01T02:02:56.350Z,100693.00
2022-09-01T02:03:07.088Z,100689.00
2022-09-01T02:03:17.830Z,100691.00
2022-09-01T02:03:28.597Z,100690.00
2022-09-01T02:03:39.338Z,100688.00
2022-09-01T02:03:50.098Z,100692.00
2022-09-01T02:04:00.869Z,100694.00
2022-09-01T02:04:11.605Z,100692.00
2022-09-01T02:04:23.797Z,100692.00
2022-09-01T02:04:34.574Z,100687.00
2022-09-01T02:04:45.278Z,100692.00
2022-09-01T02:04:56.042Z,100691.00
2022-09-01T02:05:06.759Z,100690.00
2022-09-01T02:05:17.485Z,100688.00
2022-09-01T02:05:29.197Z,100691.00
2022-09-01T02:05:39.949Z,100688.00
2022-09-01T02:05:50.701Z,100689.00
2022-09-01T02:06:01.429Z,100689.00
2022-09-01T02:06:12.286Z,100690.00
2022-09-01T02:06:24.708Z,100688.00
2022-09-01T02:06:35.456Z,100688.00
2022-09-01T02:06:46.218Z,100690.00
2022-09-01T02:06:56.956Z,100688.00
2022-09-01T02:07:07.721Z,100695.00
2022-09-01T02:07:20.168Z,100694.00
2022-09-01T02:07:33.162Z,100692.00
2022-09-01T02:07:44.566Z,100693.00
2022-09-01T02:07:56.269Z,100692.00